Íslenskir flugvellir

Veldu flugvelli í þeirri röð sem þeir eiga að birtast og styddu á hnappinn

Uppfært síðast 18.08.2022 - kl. 17:12

SIGMET síðustu 6 klst.

Engin SIGMET skeyti bárust síðustu 6 klst.

Egilsstaðir

METAR síðustu 3 klst

TímiSkeyti
2022-08-18 17.00METAR BIEG 181700Z 15011KT 9999 BKN047 BKN057 13/07 Q0987
2022-08-18 16.00METAR BIEG 181600Z 16007KT 120V190 9999 BKN046 BKN059 13/08 Q0988
2022-08-18 15.00METAR BIEG 181500Z 13008KT 100V180 9999 BKN054 14/08 Q0989

TAF

TAFBIEG2022-08-18 16.05Z18181802010KT 9999 BKN040 TX12/1913Z TN08/1906Z PROB40 TEMPO 1823/1918 -RADZ BKN014

Allur vindur er réttvísandi bæði í Metar og frá sjálfvirkum veðurstöðvum




Aðrir tengdir vefir



Þetta vefsvæði byggir á Eplica